Time;durP1;ratioP1;P1;durP2;ratioP2;P2;SDS_P1;SDS_P2;PMS_P1;PMS_P2;Temp;Humidity;BMP_temperature;BMP_pressure;BME280_temperature;BME280_humidity;BME280_pressure;Samples;Min_cycle;Max_cycle;Signal;HPM_P1;HPM_P2
2021/10/06 00:00:26;;;;;;;18.25;9.52;;;;;;;13.82;100.00;97834.53;5053876;28;20822;-80
2021/10/06 00:02:51;;;;;;;21.33;10.60;;;;;;;13.78;100.00;97834.34;5052501;28;20131;-77
2021/10/06 00:05:17;;;;;;;18.88;10.65;;;;;;;13.76;100.00;97825.63;5052591;28;20028;-78
2021/10/06 00:07:42;;;;;;;18.90;10.55;;;;;;;13.77;100.00;97818.19;5053736;28;20056;-79
2021/10/06 00:10:08;;;;;;;20.10;10.32;;;;;;;13.73;100.00;97822.69;5053768;28;20025;-81
2021/10/06 00:12:34;;;;;;;17.13;9.00;;;;;;;13.64;100.00;97822.69;5053457;28;20163;-80
2021/10/06 00:14:59;;;;;;;16.40;9.75;;;;;;;13.67;100.00;97830.28;5053291;28;20442;-77
2021/10/06 00:17:25;;;;;;;18.35;10.65;;;;;;;13.65;100.00;97832.56;5042818;28;20041;-79
2021/10/06 00:19:52;;;;;;;17.33;11.63;;;;;;;13.63;100.00;97831.22;5012629;28;20030;-78
2021/10/06 00:22:18;;;;;;;21.58;11.35;;;;;;;13.57;100.00;97827.00;5012484;28;20518;-78
2021/10/06 00:24:43;;;;;;;24.55;11.77;;;;;;;13.53;100.00;97807.63;5013146;28;20033;-77
2021/10/06 00:27:08;;;;;;;19.73;12.70;;;;;;;13.71;100.00;97808.47;5012208;28;20038;-78
2021/10/06 00:29:34;;;;;;;20.92;12.32;;;;;;;13.71;100.00;97806.53;5011491;28;20018;-77
2021/10/06 00:31:59;;;;;;;24.20;11.75;;;;;;;13.76;100.00;97811.88;5013251;28;20030;-78
2021/10/06 00:34:25;;;;;;;24.33;13.48;;;;;;;13.79;100.00;97802.16;5013061;28;20040;-76
2021/10/06 00:36:50;;;;;;;21.40;12.88;;;;;;;13.86;100.00;97792.34;5012543;28;20069;-78
2021/10/06 00:39:16;;;;;;;30.30;13.60;;;;;;;13.73;100.00;97804.25;5011086;28;20022;-78
2021/10/06 00:41:41;;;;;;;28.42;12.55;;;;;;;13.80;100.00;97803.81;5012474;28;20034;-77
2021/10/06 00:44:14;;;;;;;23.02;12.90;;;;;;;13.89;100.00;97791.69;5012262;28;20060;-79
2021/10/06 00:46:41;;;;;;;31.00;15.35;;;;;;;13.88;100.00;97795.56;5012528;28;20026;-78
2021/10/06 00:49:06;;;;;;;31.40;16.77;;;;;;;13.98;100.00;97793.63;5012944;28;20387;-78
2021/10/06 00:51:32;;;;;;;33.35;14.95;;;;;;;14.01;100.00;97788.31;5012858;28;20065;-78
2021/10/06 00:54:02;;;;;;;37.22;16.52;;;;;;;13.99;100.00;97779.56;5014060;28;20061;-77
2021/10/06 00:56:28;;;;;;;27.25;14.98;;;;;;;14.01;100.00;97776.50;5013006;28;20033;-78
2021/10/06 00:58:54;;;;;;;43.38;18.98;;;;;;;14.00;100.00;97774.91;5014166;28;20395;-81
2021/10/06 01:01:19;;;;;;;28.73;16.75;;;;;;;14.10;100.00;97780.06;5015135;28;20026;-78
2021/10/06 01:03:45;;;;;;;33.70;16.13;;;;;;;14.14;100.00;97775.53;5015823;28;20406;-80
2021/10/06 01:06:10;;;;;;;34.35;15.68;;;;;;;14.19;100.00;97789.94;5015431;28;20129;-80
2021/10/06 01:08:36;;;;;;;27.50;14.50;;;;;;;14.27;100.00;97791.09;5014103;28;20033;-77
2021/10/06 01:11:01;;;;;;;41.45;16.67;;;;;;;14.22;100.00;97789.28;5013976;28;20026;-80
2021/10/06 01:13:28;;;;;;;35.88;15.18;;;;;;;14.18;100.00;97788.34;5014445;28;20034;-79
2021/10/06 01:15:53;;;;;;;30.52;16.10;;;;;;;14.11;100.00;97789.94;5014492;28;20017;-78
2021/10/06 01:18:19;;;;;;;34.80;15.63;;;;;;;14.19;100.00;97798.19;5014969;28;20030;-78
2021/10/06 01:20:44;;;;;;;27.98;14.73;;;;;;;14.24;100.00;97794.50;5013083;28;20046;-78
2021/10/06 01:23:10;;;;;;;28.33;14.07;;;;;;;14.24;100.00;97794.50;5012890;28;20113;-78
2021/10/06 01:25:35;;;;;;;32.25;13.82;;;;;;;14.23;100.00;97785.41;5015118;28;20045;-78
2021/10/06 01:28:02;;;;;;;31.73;14.30;;;;;;;14.29;100.00;97786.06;5014797;28;20044;-77
2021/10/06 01:30:27;;;;;;;49.25;13.85;;;;;;;14.31;100.00;97781.06;5013912;28;20037;-80
2021/10/06 01:32:52;;;;;;;69.03;14.38;;;;;;;14.25;100.00;97776.84;5016125;28;20029;-80
2021/10/06 01:35:18;;;;;;;57.67;14.85;;;;;;;14.06;100.00;97768.09;5017015;28;20021;-80
2021/10/06 01:37:44;;;;;;;40.90;12.60;;;;;;;14.11;100.00;97778.94;5016252;28;20505;-79
2021/10/06 01:40:13;;;;;;;39.38;12.70;;;;;;;14.18;100.00;97779.28;5016496;28;20081;-79
2021/10/06 01:42:39;;;;;;;28.33;13.65;;;;;;;14.14;100.00;97779.09;5018684;28;20645;-79
2021/10/06 01:45:06;;;;;;;28.80;12.77;;;;;;;14.19;100.00;97789.16;5017026;28;20092;-78
2021/10/06 01:47:31;;;;;;;31.85;14.07;;;;;;;14.07;100.00;97777.94;5014286;28;20045;-79
2021/10/06 01:49:57;;;;;;;32.05;13.43;;;;;;;14.12;100.00;97788.81;5011842;28;20030;-78
2021/10/06 01:52:24;;;;;;;30.08;14.25;;;;;;;14.14;100.00;97781.84;5030662;28;20117;-78
2021/10/06 01:54:50;;;;;;;27.70;12.90;;;;;;;14.15;100.00;97783.47;5031150;28;20080;-78
2021/10/06 01:57:16;;;;;;;28.58;13.88;;;;;;;14.11;100.00;97776.19;5030382;28;20088;-77
2021/10/06 01:59:45;;;;;;;24.25;12.68;;;;;;;14.06;100.00;97779.09;5030965;28;20025;-77
2021/10/06 02:02:10;;;;;;;23.77;13.38;;;;;;;14.08;100.00;97787.84;5029594;28;20421;-77
2021/10/06 02:04:35;;;;;;;24.63;13.07;;;;;;;14.17;100.00;97780.38;5031605;28;20108;-78
2021/10/06 02:07:01;;;;;;;22.20;12.75;;;;;;;14.19;100.00;97778.16;5031153;28;20037;-78
2021/10/06 02:09:26;;;;;;;28.27;13.80;;;;;;;14.20;100.00;97780.56;5032121;28;20402;-79
2021/10/06 02:11:52;;;;;;;23.92;13.68;;;;;;;14.23;100.00;97781.84;5032046;28;20041;-79
2021/10/06 02:14:17;;;;;;;29.17;15.30;;;;;;;14.25;100.00;97782.34;5031057;28;20568;-78
2021/10/06 02:16:42;;;;;;;49.95;15.73;;;;;;;14.19;100.00;97772.66;5031614;28;20029;-78
2021/10/06 02:19:08;;;;;;;36.80;14.68;;;;;;;14.09;100.00;97748.19;5033361;28;20031;-78
2021/10/06 02:21:34;;;;;;;33.88;15.55;;;;;;;14.17;100.00;97758.38;5032948;28;20107;-80
2021/10/06 02:24:00;;;;;;;29.33;14.82;;;;;;;14.13;100.00;97752.72;5031566;28;20028;-78
2021/10/06 02:26:26;;;;;;;26.95;14.63;;;;;;;14.05;100.00;97745.28;5031869;28;20190;-77
2021/10/06 02:28:51;;;;;;;27.98;15.00;;;;;;;14.14;100.00;97753.53;5031138;28;20033;-77
2021/10/06 02:31:17;;;;;;;24.90;13.20;;;;;;;14.13;100.00;97762.91;5031203;28;20038;-78
2021/10/06 02:33:42;;;;;;;21.05;13.13;;;;;;;14.18;100.00;97760.81;5063050;28;20023;-78
2021/10/06 02:36:07;;;;;;;24.65;13.70;;;;;;;14.17;100.00;97759.19;5030804;28;20474;-78
2021/10/06 02:38:33;;;;;;;19.67;13.10;;;;;;;14.25;100.00;97765.84;5063070;28;20120;-77
2021/10/06 02:40:58;;;;;;;22.73;12.35;;;;;;;14.24;100.00;97759.53;5031042;28;20628;-78
2021/10/06 02:43:24;;;;;;;26.13;14.88;;;;;;;14.17;100.00;97742.69;5032029;28;20545;-79
2021/10/06 02:45:49;;;;;;;22.55;14.68;;;;;;;14.15;100.00;97749.66;5031521;28;20075;-77
2021/10/06 02:48:16;;;;;;;24.88;14.45;;;;;;;14.16;100.00;97749.31;5031989;28;20087;-80
2021/10/06 02:50:41;;;;;;;24.00;13.95;;;;;;;14.22;100.00;97753.53;5035162;28;20030;-78
2021/10/06 02:53:07;;;;;;;25.70;14.80;;;;;;;14.26;100.00;97759.19;5036380;28;20087;-77
2021/10/06 02:55:32;;;;;;;22.35;13.80;;;;;;;14.27;100.00;97744.31;5069783;28;20509;-78
2021/10/06 02:57:58;;;;;;;19.38;13.07;;;;;;;14.31;100.00;97743.34;5042558;28;20033;-79
2021/10/06 03:00:23;;;;;;;24.63;14.25;;;;;;;14.35;100.00;97747.09;5035234;28;20022;-78
2021/10/06 03:02:48;;;;;;;20.30;12.95;;;;;;;14.31;100.00;97743.34;5034934;28;20132;-80
2021/10/06 03:05:14;;;;;;;25.45;14.35;;;;;;;14.32;100.00;97738.63;5038300;28;20025;-81
2021/10/06 03:07:40;;;;;;;26.70;13.98;;;;;;;14.29;100.00;97748.34;5040951;28;20030;-78
2021/10/06 03:10:08;;;;;;;24.42;14.85;;;;;;;14.34;100.00;97745.50;5036508;28;20067;-79
2021/10/06 03:12:33;;;;;;;31.92;15.23;;;;;;;14.30;100.00;97743.66;5035602;28;20168;-78
2021/10/06 03:14:59;;;;;;;27.98;14.68;;;;;;;14.29;100.00;97718.09;5036350;28;20487;-78
2021/10/06 03:17:25;;;;;;;26.15;16.17;;;;;;;14.28;100.00;97726.69;5040996;28;20071;-82
2021/10/06 03:19:50;;;;;;;35.55;16.35;;;;;;;14.20;100.00;97730.22;5042816;28;20037;-83
2021/10/06 03:22:16;;;;;;;25.33;13.73;;;;;;;14.11;100.00;97738.50;5039870;28;20037;-82
2021/10/06 03:24:41;;;;;;;28.40;14.57;;;;;;;14.03;100.00;97739.31;5047059;28;20029;-80
2021/10/06 03:27:06;;;;;;;25.20;14.48;;;;;;;14.09;100.00;97742.69;5041336;28;20039;-81
2021/10/06 03:29:32;;;;;;;28.67;15.05;;;;;;;14.08;100.00;97743.81;5037678;28;20030;-80
2021/10/06 03:31:58;;;;;;;21.42;13.60;;;;;;;14.11;100.00;97748.69;5035538;28;20045;-78
2021/10/06 03:34:23;;;;;;;27.88;14.80;;;;;;;14.08;100.00;97736.38;5032246;28;20022;-79
2021/10/06 03:36:49;;;;;;;26.10;13.80;;;;;;;14.25;100.00;97741.88;5034420;28;20029;-78
2021/10/06 03:39:14;;;;;;;24.23;13.48;;;;;;;14.24;100.00;97733.97;5034564;28;20030;-78
2021/10/06 03:41:40;;;;;;;22.95;14.10;;;;;;;14.25;100.00;97741.88;5034926;28;20021;-78
2021/10/06 03:44:06;;;;;;;27.70;14.73;;;;;;;14.20;100.00;97749.47;5034906;28;20060;-79
2021/10/06 03:46:31;;;;;;;28.65;15.63;;;;;;;14.06;100.00;97730.41;5034866;28;20156;-80
2021/10/06 03:48:57;;;;;;;28.17;16.23;;;;;;;14.05;100.00;97738.97;5068579;28;20021;-79
2021/10/06 03:51:22;;;;;;;29.45;16.95;;;;;;;14.11;100.00;97738.50;5042497;28;20029;-81
2021/10/06 03:53:48;;;;;;;32.30;19.15;;;;;;;14.16;100.00;97732.03;5039105;28;20033;-79
2021/10/06 03:56:13;;;;;;;33.90;17.27;;;;;;;14.19;100.00;97734.91;5038908;28;20390;-80
2021/10/06 03:58:39;;;;;;;29.33;17.50;;;;;;;14.20;100.00;97720.03;5037022;28;20030;-78
2021/10/06 04:01:04;;;;;;;27.15;16.55;;;;;;;14.15;100.00;97711.16;5033026;28;20026;-77
2021/10/06 04:03:29;;;;;;;31.75;17.98;;;;;;;14.18;100.00;97727.00;5038294;28;20033;-80
2021/10/06 04:05:55;;;;;;;32.05;15.95;;;;;;;14.15;100.00;97738.66;5038441;28;20033;-79
2021/10/06 04:08:20;;;;;;;32.38;17.92;;;;;;;14.16;100.00;97734.78;5040586;28;20132;-79
2021/10/06 04:10:46;;;;;;;26.60;15.90;;;;;;;14.11;100.00;97727.47;5021243;28;20588;-79
2021/10/06 04:13:11;;;;;;;35.92;16.83;;;;;;;14.17;100.00;97728.13;5017921;28;20029;-80
2021/10/06 04:15:37;;;;;;;31.80;17.60;;;;;;;14.05;100.00;97723.28;5019703;28;20038;-79
2021/10/06 04:18:05;;;;;;;32.67;18.00;;;;;;;14.18;100.00;97738.00;5021135;28;20032;-80
2021/10/06 04:20:31;;;;;;;37.78;18.30;;;;;;;14.19;100.00;97718.41;5018486;28;20041;-81
2021/10/06 04:22:57;;;;;;;37.83;18.75;;;;;;;14.24;100.00;97715.50;5022705;28;20026;-83
2021/10/06 04:25:23;;;;;;;33.08;16.98;;;;;;;14.21;100.00;97720.84;5025467;28;20018;-81
2021/10/06 04:27:48;;;;;;;36.55;19.60;;;;;;;14.13;100.00;97708.72;5022412;28;20084;-80
2021/10/06 04:30:14;;;;;;;29.50;17.92;;;;;;;14.14;100.00;97721.34;5017639;28;20550;-80
2021/10/06 04:32:40;;;;;;;39.38;20.00;;;;;;;14.17;100.00;97728.13;5019616;28;20049;-80
2021/10/06 04:35:06;;;;;;;28.42;16.70;;;;;;;14.08;100.00;97724.56;5021585;28;20022;-81
2021/10/06 04:37:32;;;;;;;42.22;19.58;;;;;;;14.10;100.00;97736.03;5027639;28;20037;-80
2021/10/06 04:39:57;;;;;;;38.10;20.02;;;;;;;14.03;100.00;97725.56;5023256;28;20026;-81
2021/10/06 04:42:23;;;;;;;42.55;21.33;;;;;;;14.02;100.00;97726.69;5016709;28;20045;-77
2021/10/06 04:44:49;;;;;;;38.38;20.17;;;;;;;13.94;100.00;97728.28;5013225;28;20030;-78
2021/10/06 04:47:14;;;;;;;42.42;19.55;;;;;;;13.92;100.00;97727.00;5012904;28;20037;-77
2021/10/06 04:49:40;;;;;;;41.97;21.67;;;;;;;13.94;100.00;97725.53;5012738;28;20037;-75
2021/10/06 04:52:05;;;;;;;53.70;23.15;;;;;;;13.92;100.00;97714.06;5012540;28;20109;-77
2021/10/06 04:54:30;;;;;;;43.15;22.75;;;;;;;13.93;100.00;97712.94;5041100;28;20351;-76
2021/10/06 04:56:56;;;;;;;46.33;21.42;;;;;;;13.91;100.00;97717.94;5052146;28;20029;-77
2021/10/06 04:59:21;;;;;;;45.50;23.63;;;;;;;13.86;100.00;97723.59;5034171;28;20478;-78
2021/10/06 05:01:47;;;;;;;45.40;23.10;;;;;;;13.88;100.00;97729.56;5031852;28;20029;-76
2021/10/06 05:04:12;;;;;;;53.35;23.65;;;;;;;13.80;100.00;97730.38;5032168;28;20386;-73
2021/10/06 05:06:38;;;;;;;48.63;24.75;;;;;;;13.92;100.00;97747.06;5031389;28;20084;-76
2021/10/06 05:09:03;;;;;;;40.53;21.80;;;;;;;13.95;100.00;97737.34;5031809;28;20017;-77
2021/10/06 05:11:29;;;;;;;38.28;21.88;;;;;;;13.99;100.00;97743.00;5063644;28;20471;-77
2021/10/06 05:13:55;;;;;;;39.08;21.02;;;;;;;14.06;100.00;97737.84;5039074;28;20025;-78
2021/10/06 05:16:20;;;;;;;40.58;22.13;;;;;;;14.00;100.00;97741.88;5042091;28;20476;-79
2021/10/06 05:18:46;;;;;;;43.65;21.88;;;;;;;14.06;100.00;97738.66;5041949;28;20049;-77
2021/10/06 05:21:11;;;;;;;43.03;21.10;;;;;;;14.05;100.00;97734.28;5040471;28;20402;-79
2021/10/06 05:23:37;;;;;;;36.60;19.90;;;;;;;14.12;100.00;97731.06;5043525;28;20054;-77
2021/10/06 05:26:02;;;;;;;38.75;21.33;;;;;;;14.14;100.00;97723.28;5040143;28;20022;-78
2021/10/06 05:28:28;;;;;;;39.13;21.13;;;;;;;14.23;100.00;97735.91;5042215;28;20048;-77
2021/10/06 05:30:55;;;;;;;43.67;21.42;;;;;;;14.31;100.00;97737.03;5040455;28;20029;-76
2021/10/06 05:33:24;;;;;;;38.30;22.15;;;;;;;14.28;100.00;97735.72;5042025;28;20378;-79
2021/10/06 05:35:49;;;;;;;35.95;18.83;;;;;;;14.28;100.00;97735.72;5044601;28;20025;-79
2021/10/06 05:38:15;;;;;;;42.78;19.92;;;;;;;14.25;100.00;97733.63;5040162;28;20025;-78
2021/10/06 05:40:40;;;;;;;42.15;19.75;;;;;;;14.27;100.00;97730.56;5038998;28;20034;-78
2021/10/06 05:43:15;;;;;;;57.13;20.63;;;;;;;14.20;100.00;97736.53;5040809;28;20017;-80
2021/10/06 05:45:41;;;;;;;34.85;18.77;;;;;;;14.11;100.00;97740.44;5050835;28;20036;-81
2021/10/06 05:48:07;;;;;;;33.85;19.17;;;;;;;14.02;100.00;97734.13;5064921;28;20033;-81
2021/10/06 05:50:33;;;;;;;38.30;19.85;;;;;;;14.09;100.00;97737.19;5065858;28;20025;-82
2021/10/06 05:53:03;;;;;;;33.90;18.85;;;;;;;14.14;100.00;97737.03;5067898;28;20051;-83
2021/10/06 05:55:29;;;;;;;40.33;18.10;;;;;;;14.06;100.00;97735.91;5064337;28;20021;-82
2021/10/06 05:57:54;;;;;;;33.78;17.85;;;;;;;14.05;100.00;97741.72;5064891;28;20027;-83
2021/10/06 06:00:20;;;;;;;29.33;17.35;;;;;;;14.01;100.00;97733.31;5064179;28;20082;-80
2021/10/06 06:02:46;;;;;;;41.85;19.30;;;;;;;14.11;100.00;97749.50;5044104;28;20037;-83
2021/10/06 06:05:17;;;;;;;37.60;19.95;;;;;;;14.14;100.00;97748.03;5044345;28;20044;-80
2021/10/06 06:07:43;;;;;;;32.53;18.40;;;;;;;14.16;100.00;97749.31;5046511;28;20034;-83
2021/10/06 06:10:09;;;;;;;33.08;19.20;;;;;;;14.11;100.00;97748.69;5046368;28;20036;-83
2021/10/06 06:12:35;;;;;;;25.15;15.32;;;;;;;14.14;100.00;97759.03;5047489;28;20044;-83
2021/10/06 06:15:01;;;;;;;28.88;15.65;;;;;;;14.12;100.00;97755.81;5046558;28;20029;-82
2021/10/06 06:17:26;;;;;;;26.25;15.43;;;;;;;14.06;100.00;97755.16;5047248;28;20035;-81
2021/10/06 06:19:52;;;;;;;19.88;12.70;;;;;;;14.14;100.00;97767.28;5048165;28;20081;-81
2021/10/06 06:22:17;;;;;;;18.33;12.85;;;;;;;14.14;100.00;97768.09;5068092;28;20032;-80
2021/10/06 06:24:42;;;;;;;17.40;11.35;;;;;;;14.19;100.00;97762.44;5067410;28;20035;-82
2021/10/06 06:27:08;;;;;;;19.95;12.88;;;;;;;14.23;100.00;97752.41;5066219;28;20037;-82
2021/10/06 06:29:34;;;;;;;16.73;12.05;;;;;;;14.36;100.00;97747.91;5066600;28;20021;-82
2021/10/06 06:32:00;;;;;;;18.38;11.40;;;;;;;14.54;100.00;97763.25;5050707;28;20148;-84
2021/10/06 06:34:25;;;;;;;18.10;12.32;;;;;;;14.59;100.00;97760.34;5046096;28;20029;-80
2021/10/06 06:36:51;;;;;;;20.67;13.43;;;;;;;14.60;100.00;97767.47;5056977;28;20029;-82
2021/10/06 06:39:16;;;;;;;19.20;12.68;;;;;;;14.62;100.00;97758.88;5056270;28;20033;-84
2021/10/06 06:41:42;;;;;;;20.08;12.18;;;;;;;14.71;100.00;97756.94;5058648;28;20047;-82
2021/10/06 06:44:07;;;;;;;22.95;12.98;;;;;;;14.83;100.00;97768.88;5048776;28;20382;-81
2021/10/06 06:46:33;;;;;;;25.08;15.38;;;;;;;14.91;100.00;97768.03;5055397;28;20033;-81
2021/10/06 06:48:58;;;;;;;28.98;17.95;;;;;;;14.93;100.00;97765.78;5064083;28;20059;-81
2021/10/06 06:51:24;;;;;;;28.30;16.60;;;;;;;14.88;100.00;97771.44;5057620;28;20025;-84
2021/10/06 06:53:49;;;;;;;22.88;15.05;;;;;;;14.80;100.00;97772.28;5059595;28;20025;-82
2021/10/06 06:56:15;;;;;;;26.52;16.58;;;;;;;14.75;100.00;97775.22;5054044;28;20040;-83
2021/10/06 06:58:40;;;;;;;27.63;16.83;;;;;;;14.72;100.00;97775.06;5047917;28;20088;-82
2021/10/06 07:01:06;;;;;;;28.50;16.38;;;;;;;14.72;100.00;97773.09;5050262;28;20033;-78
2021/10/06 07:03:31;;;;;;;22.50;15.35;;;;;;;14.76;100.00;97776.81;5047416;28;20389;-83
2021/10/06 07:05:57;;;;;;;22.60;15.55;;;;;;;14.81;100.00;97773.94;5053594;28;20036;-80
2021/10/06 07:08:22;;;;;;;29.42;17.27;;;;;;;14.85;100.00;97771.28;5050036;28;20023;-81
2021/10/06 07:10:48;;;;;;;22.83;15.48;;;;;;;14.86;100.00;97776.50;5051034;28;20048;-80
2021/10/06 07:13:13;;;;;;;23.48;16.10;;;;;;;14.80;100.00;97775.06;5053526;28;20478;-80
2021/10/06 07:15:42;;;;;;;23.30;15.45;;;;;;;14.74;100.00;97792.88;5054372;28;20845;-81
2021/10/06 07:18:07;;;;;;;24.50;16.05;;;;;;;14.72;100.00;97797.88;5053341;28;20044;-78
2021/10/06 07:20:32;;;;;;;26.13;14.55;;;;;;;14.74;100.00;97801.13;5051749;28;20126;-79
2021/10/06 07:22:58;;;;;;;24.92;15.57;;;;;;;14.70;100.00;97800.16;5058468;28;20412;-81
2021/10/06 07:25:23;;;;;;;23.98;14.70;;;;;;;14.65;100.00;97803.09;5054456;28;20087;-82
2021/10/06 07:27:49;;;;;;;25.98;15.93;;;;;;;14.60;100.00;97811.50;5061277;28;20493;-81
2021/10/06 07:30:14;;;;;;;26.48;15.52;;;;;;;14.60;100.00;97810.72;5051310;28;20057;-78
2021/10/06 07:32:40;;;;;;;24.35;14.55;;;;;;;14.59;100.00;97815.41;5046033;28;20025;-81
2021/10/06 07:35:07;;;;;;;26.80;14.98;;;;;;;14.58;100.00;97816.53;5041119;28;20040;-80
2021/10/06 07:37:32;;;;;;;25.45;15.20;;;;;;;14.41;100.00;97816.53;5045018;28;20136;-82
2021/10/06 07:39:58;;;;;;;26.95;16.08;;;;;;;14.40;100.00;97817.69;5043600;28;20101;-79
2021/10/06 07:42:24;;;;;;;27.17;16.05;;;;;;;14.48;100.00;97822.34;5045638;28;20071;-78
2021/10/06 07:44:49;;;;;;;25.00;15.80;;;;;;;14.52;100.00;97823.34;5039464;28;20025;-78
2021/10/06 07:47:15;;;;;;;29.17;15.98;;;;;;;14.48;100.00;97822.34;5034706;28;20474;-80
2021/10/06 07:49:42;;;;;;;25.65;15.77;;;;;;;14.52;100.00;97819.78;5053998;28;20012;-83
2021/10/06 07:52:10;;;;;;;26.73;16.38;;;;;;;14.48;100.00;97822.34;5070914;28;20111;-81
2021/10/06 07:54:40;;;;;;;24.58;15.13;;;;;;;14.53;100.00;97822.22;5067884;28;20033;-80
2021/10/06 07:57:05;;;;;;;22.48;14.48;;;;;;;14.57;100.00;97828.66;5066997;28;20043;-82
2021/10/06 07:59:30;;;;;;;23.88;14.43;;;;;;;14.62;100.00;97824.97;5067215;28;20017;-80
2021/10/06 08:01:56;;;;;;;22.63;13.35;;;;;;;14.62;100.00;97820.25;5067332;28;20019;-80
2021/10/06 08:04:21;;;;;;;28.55;14.68;;;;;;;14.73;100.00;97827.03;5064608;28;20029;-83
2021/10/06 08:06:47;;;;;;;19.80;12.40;;;;;;;14.74;100.00;97828.69;5047579;28;20082;-81
2021/10/06 08:09:13;;;;;;;14.82;10.32;;;;;;;14.81;100.00;97823.50;5065133;28;20032;-80
2021/10/06 08:11:39;;;;;;;18.33;11.00;;;;;;;14.87;100.00;97835.16;5064833;28;20088;-81
2021/10/06 08:14:05;;;;;;;20.13;11.65;;;;;;;14.86;100.00;97833.50;5062905;28;20040;-80
2021/10/06 08:16:31;;;;;;;18.25;11.50;;;;;;;14.82;100.00;97819.59;5062304;28;20052;-83
2021/10/06 08:18:56;;;;;;;15.95;11.07;;;;;;;14.93;100.00;97828.31;5054387;28;20075;-81
2021/10/06 08:21:21;;;;;;;17.60;10.00;;;;;;;14.87;100.00;97824.94;5042147;28;20052;-81
2021/10/06 08:23:47;;;;;;;18.85;11.10;;;;;;;14.78;100.00;97813.13;5043493;28;20022;-80
2021/10/06 08:26:12;;;;;;;14.27;9.20;;;;;;;14.89;100.00;97827.34;5043037;28;20037;-81
2021/10/06 08:28:38;;;;;;;17.50;9.48;;;;;;;14.67;100.00;97830.28;5042690;28;20025;-81
2021/10/06 08:31:03;;;;;;;14.88;8.88;;;;;;;14.66;100.00;97826.72;5044314;28;20028;-80
2021/10/06 08:33:29;;;;;;;16.45;9.07;;;;;;;14.54;100.00;97832.06;5044354;28;20029;-81
2021/10/06 08:35:54;;;;;;;14.77;9.00;;;;;;;14.77;100.00;97836.28;5047836;28;20009;-81
2021/10/06 08:38:20;;;;;;;15.60;8.18;;;;;;;14.89;100.00;97832.84;5062475;28;20051;-81
2021/10/06 08:40:45;;;;;;;16.00;9.48;;;;;;;14.88;100.00;97829.28;5062296;28;20021;-82
2021/10/06 08:43:12;;;;;;;12.63;8.40;;;;;;;15.09;100.00;97829.44;5063020;28;20025;-80
2021/10/06 08:45:38;;;;;;;15.60;9.65;;;;;;;15.22;100.00;97827.63;5044151;28;20029;-81
2021/10/06 08:48:06;;;;;;;13.18;8.82;;;;;;;15.30;100.00;97824.03;5041349;28;20467;-81
2021/10/06 08:50:31;;;;;;;18.70;9.82;;;;;;;15.34;100.00;97820.28;5040436;28;20021;-78
2021/10/06 08:52:57;;;;;;;17.00;9.95;;;;;;;15.50;100.00;97834.38;5042095;28;20029;-80
2021/10/06 08:55:29;;;;;;;13.55;8.82;;;;;;;15.50;100.00;97828.84;5042286;28;20026;-80
2021/10/06 08:57:59;;;;;;;14.18;9.48;;;;;;;15.60;100.00;97844.22;5042718;28;20038;-79
2021/10/06 09:00:26;;;;;;;22.92;14.90;;;;;;;15.44;100.00;97839.19;5043296;28;20022;-81
2021/10/06 09:02:51;;;;;;;19.83;11.43;;;;;;;15.43;100.00;97839.53;5047522;28;20044;-82
2021/10/06 09:05:22;;;;;;;19.13;12.30;;;;;;;15.32;100.00;97841.03;5051828;28;20447;-83
2021/10/06 09:08:02;;;;;;;16.88;11.55;;;;;;;15.18;100.00;97832.16;5050292;28;20026;-84
2021/10/06 09:10:31;;;;;;;18.27;10.70;;;;;;;15.19;100.00;97833.78;5051180;28;20026;-82
2021/10/06 09:12:59;;;;;;;16.33;12.52;;;;;;;15.23;100.00;97835.53;5052997;28;20025;-83
2021/10/06 09:15:27;;;;;;;17.60;11.38;;;;;;;15.30;100.00;97829.53;5047275;28;20030;-82
2021/10/06 09:17:55;;;;;;;14.77;9.82;;;;;;;15.30;100.00;97832.28;5047440;28;20033;-82
2021/10/06 09:20:20;;;;;;;13.90;10.30;;;;;;;15.33;100.00;97839.91;5043669;28;20452;-81
2021/10/06 09:23:03;;;;;;;20.27;9.48;;;;;;;15.51;100.00;97841.47;5045628;28;20085;-83
2021/10/06 09:25:36;;;;;;;11.52;8.57;;;;;;;15.50;100.00;97845.41;5057718;28;20058;-81
2021/10/06 09:28:04;;;;;;;13.15;8.40;;;;;;;15.58;100.00;97840.97;5059912;28;20032;-84
2021/10/06 09:30:30;;;;;;;11.48;7.32;;;;;;;15.50;100.00;97829.66;5061740;28;20029;-83
2021/10/06 09:32:57;;;;;;;12.50;7.90;;;;;;;15.51;100.00;97838.72;5062867;28;20024;-82
2021/10/06 09:35:24;;;;;;;9.27;6.80;;;;;;;15.64;100.00;97834.94;5063754;28;20087;-82
2021/10/06 09:37:52;;;;;;;10.15;6.00;;;;;;;15.72;100.00;97839.63;5066725;28;20025;-81
2021/10/06 09:40:21;;;;;;;8.50;5.97;;;;;;;15.98;100.00;97832.00;5068797;28;20025;-82
2021/10/06 09:43:15;;;;;;;8.63;5.50;;;;;;;16.29;100.00;97828.09;5070686;28;20017;-83
2021/10/06 09:45:40;;;;;;;7.32;4.95;;;;;;;16.42;100.00;97833.34;5066549;28;20053;-82
2021/10/06 09:48:11;;;;;;;7.72;4.82;;;;;;;16.35;100.00;97832.28;5064134;28;20040;-81
2021/10/06 09:50:43;;;;;;;8.80;5.15;;;;;;;16.57;100.00;97827.25;5060044;28;20025;-81
2021/10/06 09:53:10;;;;;;;9.27;5.60;;;;;;;16.38;100.00;97821.34;5065670;28;20045;-82
2021/10/06 09:55:37;;;;;;;8.77;4.90;;;;;;;16.20;100.00;97830.09;5066621;28;20029;-80
2021/10/06 09:58:03;;;;;;;8.43;4.97;;;;;;;16.14;100.00;97837.75;5066888;28;20040;-82
2021/10/06 10:00:29;;;;;;;9.15;5.10;;;;;;;16.04;100.00;97827.09;5061855;28;20029;-80
2021/10/06 10:02:55;;;;;;;8.52;4.97;;;;;;;16.00;100.00;97829.75;5054283;28;20064;-82
2021/10/06 10:05:20;;;;;;;9.68;6.07;;;;;;;15.97;100.00;97838.69;5053220;28;20006;-82
2021/10/06 10:07:46;;;;;;;11.35;4.68;;;;;;;15.90;100.00;97827.38;5053391;28;20090;-83
2021/10/06 10:10:12;;;;;;;10.13;5.05;;;;;;;15.81;100.00;97837.63;5055490;28;20110;-80
2021/10/06 10:12:38;;;;;;;9.02;5.32;;;;;;;15.89;100.00;97828.50;5054562;28;20076;-82
2021/10/06 10:15:04;;;;;;;7.07;5.20;;;;;;;15.78;100.00;97829.22;5055494;28;20021;-85
2021/10/06 10:17:30;;;;;;;9.75;5.10;;;;;;;15.76;100.00;97829.53;5055698;28;20077;-83
2021/10/06 10:20:00;;;;;;;10.57;5.38;;;;;;;15.95;100.00;97816.13;5054933;28;20052;-84
2021/10/06 10:22:29;;;;;;;7.75;4.32;;;;;;;15.97;100.00;97816.63;5053469;28;20052;-83
2021/10/06 10:24:55;;;;;;;5.65;3.80;;;;;;;16.13;100.00;97814.09;5053127;28;20083;-83
2021/10/06 10:27:22;;;;;;;7.35;3.58;;;;;;;16.21;100.00;97799.41;5053280;28;20013;-85
2021/10/06 10:30:02;;;;;;;11.30;3.58;;;;;;;16.35;100.00;97815.72;5055782;28;20033;-81
2021/10/06 10:32:40;;;;;;;11.90;4.00;;;;;;;16.43;100.00;97817.59;5054013;28;20048;-81
2021/10/06 10:35:11;;;;;;;7.47;4.15;;;;;;;16.37;100.00;97813.41;5049121;28;20148;-82
2021/10/06 10:37:46;;;;;;;13.00;4.90;;;;;;;16.35;100.00;97815.72;5054098;28;20024;-83
2021/10/06 10:40:49;;;;;;;6.32;3.70;;;;;;;16.38;100.00;97806.75;5055229;28;20022;-82
2021/10/06 10:43:27;;;;;;;7.63;4.55;;;;;;;16.19;100.00;97809.19;5063245;28;20045;-79
2021/10/06 10:46:11;;;;;;;9.25;4.50;;;;;;;16.23;100.00;97801.81;5077216;28;20047;-78
2021/10/06 10:48:56;;;;;;;8.60;5.70;;;;;;;16.24;100.00;97803.44;5077157;28;20019;-79
2021/10/06 10:51:41;;;;;;;9.30;4.63;;;;;;;16.16;100.00;97796.88;5077506;28;20087;-80
2021/10/06 10:54:10;;;;;;;8.52;4.57;;;;;;;16.30;100.00;97791.88;5076587;28;20017;-79
2021/10/06 10:56:48;;;;;;;10.98;5.25;;;;;;;16.41;100.00;97800.56;5076397;28;20017;-82
2021/10/06 10:59:15;;;;;;;7.93;4.88;;;;;;;16.38;100.00;97795.72;5075511;28;20104;-84
2021/10/06 11:01:53;;;;;;;11.48;5.20;;;;;;;16.28;100.00;97804.41;5075603;28;20009;-84
2021/10/06 11:04:24;;;;;;;10.48;5.80;;;;;;;16.23;100.00;97797.13;5074845;28;20017;-80
2021/10/06 11:07:13;;;;;;;14.13;5.13;;;;;;;16.28;100.00;97793.34;5075924;28;20033;-81
2021/10/06 11:09:46;;;;;;;10.55;4.57;;;;;;;16.21;100.00;97787.56;5074440;28;20062;-81